createdAt,value
2017-12-13T00:02:20.695Z,4.90
2017-12-13T00:04:47.047Z,4.85
2017-12-13T00:07:13.408Z,4.74
2017-12-13T00:09:39.809Z,4.69
2017-12-13T00:12:06.173Z,4.80
2017-12-13T00:14:32.660Z,4.90
2017-12-13T00:16:59.279Z,4.81
2017-12-13T00:19:25.616Z,4.73
2017-12-13T00:21:51.928Z,4.80
2017-12-13T00:24:18.298Z,4.87
2017-12-13T00:26:44.625Z,4.82
2017-12-13T00:29:10.949Z,4.72
2017-12-13T00:31:37.304Z,4.59
2017-12-13T00:34:03.718Z,4.64
2017-12-13T00:36:30.085Z,4.70
2017-12-13T00:38:56.539Z,4.75
2017-12-13T00:41:22.868Z,4.70
2017-12-13T00:43:49.193Z,4.67
2017-12-13T00:46:15.659Z,4.67
2017-12-13T00:48:42.024Z,4.65
2017-12-13T00:51:08.351Z,4.72
2017-12-13T00:53:34.752Z,4.82
2017-12-13T00:56:01.182Z,4.80
2017-12-13T00:58:27.550Z,4.74
2017-12-13T01:00:53.924Z,4.65
2017-12-13T01:03:20.300Z,4.62
2017-12-13T01:05:46.675Z,4.66
2017-12-13T01:08:13.080Z,4.65
2017-12-13T01:10:39.452Z,4.60
2017-12-13T01:13:05.795Z,4.61
2017-12-13T01:15:32.175Z,4.62
2017-12-13T01:17:58.509Z,4.63
2017-12-13T01:20:24.934Z,4.63
2017-12-13T01:22:51.312Z,4.71
2017-12-13T01:25:17.628Z,4.81
2017-12-13T01:27:43.980Z,4.71
2017-12-13T01:30:10.585Z,4.62
2017-12-13T01:32:36.977Z,4.53
2017-12-13T01:35:03.316Z,4.47
2017-12-13T01:37:29.707Z,4.49
2017-12-13T01:39:56.036Z,4.49
2017-12-13T01:42:22.372Z,4.60
2017-12-13T01:44:48.765Z,4.66
2017-12-13T01:47:15.092Z,4.72
2017-12-13T01:49:41.464Z,4.67
2017-12-13T01:52:07.850Z,4.67
2017-12-13T01:54:34.192Z,4.55
2017-12-13T01:57:00.585Z,4.53
2017-12-13T01:59:27.032Z,4.48
2017-12-13T02:01:53.449Z,4.38
2017-12-13T02:04:19.883Z,4.36
2017-12-13T02:06:46.315Z,4.42
2017-12-13T02:09:12.774Z,4.50
2017-12-13T02:11:39.285Z,4.50
2017-12-13T02:14:05.736Z,4.55
2017-12-13T02:16:32.079Z,4.55
2017-12-13T02:18:58.443Z,4.49
2017-12-13T02:21:24.851Z,4.39
2017-12-13T02:23:51.246Z,4.36
2017-12-13T02:26:17.596Z,4.38
2017-12-13T02:28:43.983Z,4.36
2017-12-13T02:31:10.309Z,4.39
2017-12-13T02:33:36.632Z,4.42
2017-12-13T02:36:03.020Z,4.48
2017-12-13T02:38:29.399Z,4.45
2017-12-13T02:41:00.743Z,4.37
2017-12-13T02:43:27.128Z,4.36
2017-12-13T02:45:53.463Z,4.40
2017-12-13T02:48:19.778Z,4.37
2017-12-13T02:50:46.280Z,4.42
2017-12-13T02:53:12.724Z,4.56
2017-12-13T02:55:39.288Z,4.51
2017-12-13T02:58:05.819Z,4.48
2017-12-13T03:00:32.237Z,4.49
2017-12-13T03:02:58.624Z,4.54
2017-12-13T03:05:25.092Z,4.58
2017-12-13T03:07:51.502Z,4.48
2017-12-13T03:10:17.912Z,4.39
2017-12-13T03:12:44.327Z,4.32
2017-12-13T03:15:10.737Z,4.37
2017-12-13T03:17:37.300Z,4.33
2017-12-13T03:20:03.748Z,4.30
2017-12-13T03:22:30.180Z,4.31
2017-12-13T03:24:56.539Z,4.33
2017-12-13T03:27:22.916Z,4.38
2017-12-13T03:29:49.244Z,4.38
2017-12-13T03:32:15.600Z,4.40
2017-12-13T03:34:41.984Z,4.44
2017-12-13T03:37:08.347Z,4.45
2017-12-13T03:39:34.693Z,4.33
2017-12-13T03:42:01.087Z,4.30
2017-12-13T03:44:27.407Z,4.28
2017-12-13T03:46:53.792Z,4.29
2017-12-13T03:49:20.199Z,4.38
2017-12-13T03:51:46.540Z,4.29
2017-12-13T03:54:12.844Z,4.16
2017-12-13T03:56:39.208Z,4.16
2017-12-13T03:59:05.540Z,4.20
2017-12-13T04:01:31.891Z,4.23
2017-12-13T04:03:58.269Z,4.30
2017-12-13T04:06:24.617Z,4.33
2017-12-13T04:08:50.980Z,4.31
2017-12-13T04:11:17.356Z,4.23
2017-12-13T04:13:43.680Z,4.18
2017-12-13T04:16:10.010Z,4.22
2017-12-13T04:18:36.415Z,4.23
2017-12-13T04:21:03.747Z,4.17
2017-12-13T04:23:30.092Z,4.16
2017-12-13T04:25:56.519Z,4.22
2017-12-13T04:28:22.928Z,4.14
2017-12-13T04:30:49.257Z,4.13
2017-12-13T04:33:15.692Z,4.16
2017-12-13T04:35:42.016Z,4.17
2017-12-13T04:38:08.331Z,4.20
2017-12-13T04:40:34.787Z,4.16
2017-12-13T04:43:01.147Z,4.13
2017-12-13T04:45:27.476Z,4.13
2017-12-13T04:47:53.854Z,4.13
2017-12-13T04:50:20.172Z,4.08
2017-12-13T04:52:46.500Z,4.03
2017-12-13T04:55:12.893Z,4.01
2017-12-13T04:57:39.212Z,4.10
2017-12-13T05:00:05.563Z,4.21
2017-12-13T05:02:32.072Z,4.20
2017-12-13T05:04:58.384Z,4.12
2017-12-13T05:07:24.757Z,4.01
2017-12-13T05:09:51.208Z,4.03
2017-12-13T05:12:17.599Z,4.05
2017-12-13T05:14:43.959Z,3.99
2017-12-13T05:17:10.420Z,4.06
2017-12-13T05:19:36.791Z,3.84
2017-12-13T05:22:03.307Z,3.90
2017-12-13T05:24:29.704Z,3.89
2017-12-13T05:26:56.235Z,3.90
2017-12-13T05:29:22.600Z,3.87
2017-12-13T05:31:48.988Z,4.01
2017-12-13T05:34:15.364Z,4.12
2017-12-13T05:36:41.704Z,4.18
2017-12-13T05:39:08.076Z,4.07
2017-12-13T05:41:34.408Z,4.00
2017-12-13T05:44:00.765Z,3.96
2017-12-13T05:46:27.175Z,3.92
2017-12-13T05:48:53.499Z,3.92
2017-12-13T05:51:19.831Z,3.92
2017-12-13T05:53:46.350Z,3.86
2017-12-13T05:56:12.680Z,3.82
2017-12-13T05:58:38.993Z,3.87
2017-12-13T06:01:05.403Z,3.97
2017-12-13T06:03:31.760Z,3.88
2017-12-13T06:05:58.123Z,3.99
2017-12-13T06:08:24.642Z,4.03
2017-12-13T06:10:50.980Z,4.09
2017-12-13T06:13:17.407Z,4.18
2017-12-13T06:15:44.056Z,4.12
2017-12-13T06:18:10.505Z,4.09
2017-12-13T06:20:36.872Z,4.10
2017-12-13T06:23:03.329Z,4.08
2017-12-13T06:25:29.716Z,4.10
2017-12-13T06:27:56.045Z,4.23
2017-12-13T06:30:22.412Z,4.36
2017-12-13T06:32:48.752Z,4.48
2017-12-13T06:35:15.368Z,4.55
2017-12-13T06:37:41.880Z,4.58
2017-12-13T06:40:08.292Z,4.66
2017-12-13T06:42:34.635Z,4.71
2017-12-13T06:45:01.048Z,4.73
2017-12-13T06:47:27.439Z,4.80
2017-12-13T06:49:53.984Z,4.82
2017-12-13T06:52:20.442Z,4.82
2017-12-13T06:54:46.760Z,4.90
2017-12-13T06:57:13.103Z,4.95
2017-12-13T06:59:39.464Z,5.05
2017-12-13T07:02:05.996Z,5.11
2017-12-13T07:04:32.371Z,5.13
2017-12-13T07:06:58.912Z,5.24
2017-12-13T07:09:25.248Z,5.31
2017-12-13T07:11:51.705Z,5.33
2017-12-13T07:14:18.097Z,5.28
2017-12-13T07:16:44.436Z,5.32
2017-12-13T07:19:10.776Z,5.40
2017-12-13T07:21:37.273Z,5.43
2017-12-13T07:24:03.613Z,5.47
2017-12-13T07:26:29.967Z,5.52
2017-12-13T07:28:56.359Z,5.52
2017-12-13T07:31:22.759Z,5.58
2017-12-13T07:33:49.173Z,5.68
2017-12-13T07:36:15.564Z,5.80
2017-12-13T07:38:42.369Z,5.91
2017-12-13T07:41:09.004Z,5.99
2017-12-13T07:43:35.456Z,6.07
2017-12-13T07:46:01.856Z,6.13
2017-12-13T07:48:28.201Z,6.20
2017-12-13T07:50:54.588Z,6.27
2017-12-13T07:53:20.915Z,6.35
2017-12-13T07:55:47.235Z,6.43
2017-12-13T07:58:13.670Z,6.55
2017-12-13T08:00:40.036Z,6.70
2017-12-13T08:03:06.443Z,6.83
2017-12-13T08:05:32.867Z,6.93
2017-12-13T08:07:59.213Z,7.06
2017-12-13T08:10:25.608Z,7.13
2017-12-13T08:12:51.999Z,7.18
2017-12-13T08:15:18.353Z,7.23
2017-12-13T08:17:44.684Z,7.23
2017-12-13T08:20:11.113Z,7.27
2017-12-13T08:22:37.546Z,7.33
2017-12-13T08:25:04.016Z,7.38
2017-12-13T08:27:30.700Z,7.46
2017-12-13T08:29:57.035Z,7.50
2017-12-13T08:32:23.392Z,7.58
2017-12-13T08:34:49.846Z,7.65
2017-12-13T08:37:16.231Z,7.66
2017-12-13T08:39:42.586Z,7.71
2017-12-13T08:42:09.119Z,7.77
2017-12-13T08:44:35.488Z,7.92
2017-12-13T08:47:01.861Z,8.06
2017-12-13T08:49:28.236Z,8.07
2017-12-13T08:51:54.753Z,8.20
2017-12-13T08:54:21.123Z,8.34
2017-12-13T08:56:47.579Z,8.49
2017-12-13T08:59:13.900Z,8.53
2017-12-13T09:01:40.296Z,8.69
2017-12-13T09:04:06.893Z,8.79
2017-12-13T09:06:33.301Z,8.92
2017-12-13T09:08:59.655Z,8.93
2017-12-13T09:11:26.184Z,8.93
2017-12-13T09:13:52.584Z,9.06
2017-12-13T09:16:19.012Z,9.19
2017-12-13T09:18:45.555Z,9.39
2017-12-13T09:21:11.918Z,9.39
2017-12-13T09:23:38.472Z,9.32
2017-12-13T09:26:04.991Z,9.25
2017-12-13T09:28:31.556Z,9.04
2017-12-13T09:30:58.296Z,8.90
2017-12-13T09:33:24.748Z,9.04
2017-12-13T09:35:51.152Z,9.36
2017-12-13T09:38:17.519Z,9.52
2017-12-13T09:40:43.952Z,9.48
2017-12-13T09:43:10.294Z,9.63
2017-12-13T09:45:36.692Z,9.88
2017-12-13T09:48:03.119Z,10.12
2017-12-13T09:50:29.561Z,10.18
2017-12-13T09:52:55.968Z,10.34
2017-12-13T09:55:22.385Z,10.53
2017-12-13T09:57:48.805Z,10.72
2017-12-13T10:00:15.224Z,10.84
2017-12-13T10:02:41.909Z,10.89
2017-12-13T10:05:09.617Z,11.01
2017-12-13T10:07:36.104Z,10.94
2017-12-13T10:10:02.548Z,10.98
2017-12-13T10:12:28.945Z,11.01
2017-12-13T10:14:55.504Z,11.05
2017-12-13T10:17:21.937Z,10.86
2017-12-13T10:19:48.292Z,10.93
2017-12-13T10:22:14.726Z,10.95
2017-12-13T10:24:41.375Z,11.02
2017-12-13T10:27:07.818Z,11.16
2017-12-13T10:29:34.173Z,11.18
2017-12-13T10:32:00.740Z,11.22
2017-12-13T10:34:27.200Z,11.26
2017-12-13T10:36:53.583Z,11.25
2017-12-13T10:39:20.029Z,11.30
2017-12-13T10:41:46.360Z,11.34
2017-12-13T10:44:12.712Z,11.35
2017-12-13T10:46:39.104Z,11.40
2017-12-13T10:49:05.428Z,11.42
2017-12-13T10:51:31.773Z,11.40
2017-12-13T10:53:58.257Z,11.44
2017-12-13T10:56:24.793Z,11.45
2017-12-13T10:58:51.177Z,11.56
2017-12-13T11:01:17.680Z,11.78
2017-12-13T11:03:44.132Z,11.93
2017-12-13T11:06:10.628Z,12.03
2017-12-13T11:08:37.044Z,12.14
2017-12-13T11:11:03.699Z,12.19
2017-12-13T11:13:30.188Z,12.07
2017-12-13T11:15:56.648Z,11.86
2017-12-13T11:18:23.102Z,11.61
2017-12-13T11:20:49.456Z,11.72
2017-12-13T11:23:15.873Z,11.90
2017-12-13T11:25:42.330Z,12.04
2017-12-13T11:28:08.762Z,12.21
2017-12-13T11:30:35.199Z,12.28
2017-12-13T11:33:01.615Z,12.45
2017-12-13T11:35:28.052Z,12.49
2017-12-13T11:37:54.720Z,12.61
2017-12-13T11:40:21.122Z,12.65
2017-12-13T11:42:47.516Z,12.73
2017-12-13T11:45:13.916Z,12.67
2017-12-13T11:47:40.301Z,12.65
2017-12-13T11:50:06.707Z,12.64
2017-12-13T11:52:33.116Z,12.71
2017-12-13T11:54:59.551Z,12.78
2017-12-13T11:57:25.970Z,12.77
2017-12-13T11:59:52.524Z,12.84
2017-12-13T12:02:18.931Z,12.97
2017-12-13T12:04:45.375Z,13.00
2017-12-13T12:07:11.876Z,13.07
2017-12-13T12:09:38.488Z,13.05
2017-12-13T12:12:04.975Z,13.07
2017-12-13T12:14:31.373Z,13.15
2017-12-13T12:16:57.781Z,13.16
2017-12-13T12:19:24.176Z,13.07
2017-12-13T12:21:50.648Z,13.10
2017-12-13T12:24:17.004Z,13.02
2017-12-13T12:26:43.409Z,13.01
2017-12-13T12:29:09.800Z,12.95
2017-12-13T12:31:36.200Z,12.91
2017-12-13T12:34:02.588Z,12.91
2017-12-13T12:36:29.056Z,12.89
2017-12-13T12:38:55.500Z,12.90
2017-12-13T12:41:22.119Z,12.88
2017-12-13T12:43:48.576Z,12.83
2017-12-13T12:46:15.007Z,12.77
2017-12-13T12:48:41.371Z,12.80
2017-12-13T12:51:07.775Z,12.91
2017-12-13T12:53:34.381Z,12.95
2017-12-13T12:56:00.739Z,12.95
2017-12-13T12:58:27.275Z,12.90
2017-12-13T13:00:53.660Z,12.86
2017-12-13T13:03:20.004Z,12.80
2017-12-13T13:05:46.403Z,12.75
2017-12-13T13:08:12.779Z,12.72
2017-12-13T13:10:39.237Z,12.85
2017-12-13T13:13:05.677Z,12.83
2017-12-13T13:15:32.102Z,12.71
2017-12-13T13:17:58.567Z,12.68
2017-12-13T13:20:25.175Z,12.70
2017-12-13T13:22:51.635Z,12.77
2017-12-13T13:25:18.023Z,12.80
2017-12-13T13:27:44.644Z,12.83
2017-12-13T13:30:11.317Z,12.85
2017-12-13T13:32:37.854Z,12.82
2017-12-13T13:35:04.388Z,12.76
2017-12-13T13:37:30.751Z,12.64
2017-12-13T13:39:57.460Z,12.58
2017-12-13T13:42:23.884Z,12.54
2017-12-13T13:44:50.240Z,12.37
2017-12-13T13:47:16.632Z,12.32
2017-12-13T13:49:43.047Z,12.34
2017-12-13T13:52:09.419Z,12.34
2017-12-13T13:54:35.855Z,12.32
2017-12-13T13:57:02.237Z,12.37
2017-12-13T13:59:28.695Z,12.39
2017-12-13T14:01:55.109Z,12.38
2017-12-13T14:04:21.485Z,12.40
2017-12-13T14:06:47.852Z,12.38
2017-12-13T14:09:14.227Z,12.40
2017-12-13T14:11:40.613Z,12.39
2017-12-13T14:14:06.992Z,12.30
2017-12-13T14:16:33.363Z,12.22
2017-12-13T14:18:59.763Z,12.18
2017-12-13T14:21:26.156Z,12.10
2017-12-13T14:23:52.563Z,12.05
2017-12-13T14:26:19.185Z,12.01
2017-12-13T14:28:45.663Z,11.98
2017-12-13T14:31:12.077Z,12.00
2017-12-13T14:33:38.510Z,11.99
2017-12-13T14:36:04.897Z,12.00
2017-12-13T14:38:31.299Z,12.00
2017-12-13T14:40:57.692Z,11.97
2017-12-13T14:43:24.026Z,11.95
2017-12-13T14:45:50.441Z,11.91
2017-12-13T14:48:17.104Z,11.84
2017-12-13T14:50:43.460Z,11.75
2017-12-13T14:53:09.817Z,11.64
2017-12-13T14:55:36.225Z,11.59
2017-12-13T14:58:02.607Z,11.51
2017-12-13T15:00:28.938Z,11.52
2017-12-13T15:02:55.473Z,11.48
2017-12-13T15:05:21.992Z,11.38
2017-12-13T15:07:48.367Z,11.38
2017-12-13T15:10:14.747Z,11.38
2017-12-13T15:12:41.084Z,11.35
2017-12-13T15:15:07.413Z,11.35
2017-12-13T15:17:33.837Z,11.33
2017-12-13T15:20:00.380Z,11.32
2017-12-13T15:22:27.665Z,11.25
2017-12-13T15:24:54.029Z,11.23
2017-12-13T15:27:20.528Z,11.16
2017-12-13T15:29:46.865Z,11.10
2017-12-13T15:32:13.248Z,11.08
2017-12-13T15:34:39.962Z,11.08
2017-12-13T15:37:06.463Z,11.05
2017-12-13T15:39:33.068Z,11.04
2017-12-13T15:41:59.499Z,11.01
2017-12-13T15:44:25.892Z,10.96
2017-12-13T15:46:52.399Z,10.91
2017-12-13T15:49:18.755Z,10.85
2017-12-13T15:51:45.124Z,10.79
2017-12-13T15:54:11.577Z,10.71
2017-12-13T15:56:39.037Z,10.69
2017-12-13T15:59:05.436Z,10.70
2017-12-13T16:01:33.419Z,10.73
2017-12-13T16:03:59.749Z,10.73
2017-12-13T16:06:27.604Z,10.71
2017-12-13T16:08:54.064Z,10.70
2017-12-13T16:11:20.404Z,10.67
2017-12-13T16:13:46.737Z,10.65
2017-12-13T16:16:13.388Z,10.60
2017-12-13T16:18:40.351Z,10.51
2017-12-13T16:21:06.692Z,10.48
2017-12-13T16:23:33.906Z,10.42
2017-12-13T16:26:00.284Z,10.42
2017-12-13T16:28:27.829Z,10.43
2017-12-13T16:30:54.267Z,10.42
2017-12-13T16:33:20.657Z,10.32
2017-12-13T16:35:47.092Z,10.35
2017-12-13T16:38:15.368Z,10.32
2017-12-13T16:40:41.804Z,10.28
2017-12-13T16:43:08.246Z,10.19
2017-12-13T16:45:34.872Z,10.17
2017-12-13T16:48:01.230Z,10.23
2017-12-13T16:50:27.877Z,10.24
2017-12-13T16:52:54.456Z,10.21
2017-12-13T16:55:20.926Z,10.18
2017-12-13T16:57:47.466Z,10.19
2017-12-13T17:00:14.409Z,10.20
2017-12-13T17:02:41.308Z,10.19
2017-12-13T17:05:07.767Z,10.16
2017-12-13T17:07:34.359Z,10.12
2017-12-13T17:10:00.840Z,10.10
2017-12-13T17:12:27.391Z,10.07
2017-12-13T17:14:53.888Z,10.05
2017-12-13T17:17:20.316Z,10.03
2017-12-13T17:19:46.734Z,9.98
2017-12-13T17:22:13.260Z,10.00
2017-12-13T17:24:39.700Z,10.04
2017-12-13T17:27:06.072Z,10.07
2017-12-13T17:29:32.504Z,10.08
2017-12-13T17:31:58.912Z,10.04
2017-12-13T17:34:26.113Z,10.07
2017-12-13T17:36:52.602Z,10.00
2017-12-13T17:39:18.957Z,9.99
2017-12-13T17:41:45.396Z,9.92
2017-12-13T17:44:11.851Z,9.84
2017-12-13T17:46:38.469Z,9.82
2017-12-13T17:49:04.922Z,9.81
2017-12-13T17:51:31.352Z,9.79
2017-12-13T17:53:58.230Z,9.76
2017-12-13T17:56:24.676Z,9.73
2017-12-13T17:58:51.115Z,9.73
2017-12-13T18:01:17.511Z,9.71
2017-12-13T18:03:44.031Z,9.67
2017-12-13T18:06:10.495Z,9.64
2017-12-13T18:08:36.891Z,9.63
2017-12-13T18:11:03.288Z,9.64
2017-12-13T18:13:29.746Z,9.60
2017-12-13T18:15:56.196Z,9.57
2017-12-13T18:18:22.937Z,9.65
2017-12-13T18:20:49.483Z,9.64
2017-12-13T18:23:15.924Z,9.64
2017-12-13T18:25:42.339Z,9.62
2017-12-13T18:28:08.862Z,9.55
2017-12-13T18:30:35.413Z,9.51
2017-12-13T18:33:01.824Z,9.51
2017-12-13T18:35:28.305Z,9.52
2017-12-13T18:37:54.792Z,9.54
2017-12-13T18:40:21.486Z,9.51
2017-12-13T18:42:47.938Z,9.52
2017-12-13T18:45:14.696Z,9.53
2017-12-13T18:47:41.119Z,9.51
2017-12-13T18:50:07.570Z,9.47
2017-12-13T18:52:33.966Z,9.44
2017-12-13T18:55:00.480Z,9.43
2017-12-13T18:57:27.597Z,9.38
2017-12-13T18:59:54.079Z,9.36
2017-12-13T19:02:20.660Z,9.35
2017-12-13T19:04:47.184Z,9.34
2017-12-13T19:07:13.600Z,9.34
2017-12-13T19:09:40.012Z,9.32
2017-12-13T19:12:06.495Z,9.30
2017-12-13T19:14:32.986Z,9.21
2017-12-13T19:16:59.617Z,9.08
2017-12-13T19:19:26.093Z,8.99
2017-12-13T19:21:53.129Z,8.97
2017-12-13T19:24:20.136Z,8.90
2017-12-13T19:26:47.733Z,8.90
2017-12-13T19:29:14.087Z,8.91
2017-12-13T19:31:40.557Z,8.96
2017-12-13T19:34:07.260Z,9.07
2017-12-13T19:36:33.696Z,9.12
2017-12-13T19:39:00.097Z,9.13
2017-12-13T19:41:26.708Z,9.13
2017-12-13T19:43:53.060Z,9.10
2017-12-13T19:46:19.487Z,9.10
2017-12-13T19:48:45.996Z,9.06
2017-12-13T19:51:12.524Z,9.07
2017-12-13T19:53:38.908Z,9.07
2017-12-13T19:56:05.344Z,9.00
2017-12-13T19:58:31.823Z,8.98
2017-12-13T20:00:58.235Z,8.97
2017-12-13T20:03:24.771Z,8.98
2017-12-13T20:05:51.327Z,9.00
2017-12-13T20:08:18.299Z,9.01
2017-12-13T20:10:44.844Z,9.07
2017-12-13T20:13:11.252Z,9.08
2017-12-13T20:15:37.655Z,9.10
2017-12-13T20:18:04.084Z,9.09
2017-12-13T20:20:30.472Z,9.09
2017-12-13T20:22:57.080Z,9.07
2017-12-13T20:25:23.589Z,8.91
2017-12-13T20:27:49.996Z,8.92
2017-12-13T20:30:16.533Z,8.92
2017-12-13T20:32:42.929Z,8.99
2017-12-13T20:35:09.332Z,9.03
2017-12-13T20:37:35.780Z,9.05
2017-12-13T20:40:02.302Z,9.05
2017-12-13T20:42:28.858Z,9.02
2017-12-13T20:44:55.241Z,8.96
2017-12-13T20:47:21.777Z,8.92
2017-12-13T20:49:49.061Z,8.89
2017-12-13T20:52:15.594Z,8.86
2017-12-13T20:54:42.154Z,8.92
2017-12-13T20:57:08.785Z,8.94
2017-12-13T20:59:35.625Z,8.88
2017-12-13T21:02:02.113Z,8.89
2017-12-13T21:04:28.577Z,8.88
2017-12-13T21:06:54.960Z,8.84
2017-12-13T21:09:21.432Z,8.84
2017-12-13T21:11:47.819Z,8.86
2017-12-13T21:14:14.202Z,8.86
2017-12-13T21:16:40.625Z,8.81
2017-12-13T21:19:07.096Z,8.81
2017-12-13T21:21:33.476Z,8.82
2017-12-13T21:23:59.958Z,8.84
2017-12-13T21:26:26.324Z,8.83
2017-12-13T21:28:52.692Z,8.81
2017-12-13T21:31:19.515Z,8.77
2017-12-13T21:33:45.923Z,8.76
2017-12-13T21:36:12.406Z,8.78
2017-12-13T21:38:38.825Z,8.79
2017-12-13T21:41:05.408Z,8.66
2017-12-13T21:43:31.792Z,8.72
2017-12-13T21:45:58.232Z,8.75
2017-12-13T21:48:24.790Z,8.88
2017-12-13T21:50:51.137Z,8.88
2017-12-13T21:53:17.684Z,8.93
2017-12-13T21:55:44.127Z,8.94
2017-12-13T21:58:10.637Z,8.94
2017-12-13T22:00:37.100Z,8.95
2017-12-13T22:03:03.483Z,9.01
2017-12-13T22:05:30.264Z,9.01
2017-12-13T22:07:56.992Z,8.97
2017-12-13T22:10:23.573Z,9.05
2017-12-13T22:12:50.087Z,9.05
2017-12-13T22:15:16.716Z,8.97
2017-12-13T22:17:43.392Z,8.96
2017-12-13T22:20:09.744Z,8.95
2017-12-13T22:22:36.320Z,8.93
2017-12-13T22:25:02.943Z,8.95
2017-12-13T22:27:29.596Z,8.94
2017-12-13T22:29:56.039Z,8.94
2017-12-13T22:32:22.397Z,8.93
2017-12-13T22:34:48.820Z,8.94
2017-12-13T22:37:15.240Z,8.90
2017-12-13T22:39:41.593Z,8.95
2017-12-13T22:42:08.045Z,9.01
2017-12-13T22:44:34.444Z,9.00
2017-12-13T22:47:00.877Z,8.96
2017-12-13T22:49:27.306Z,8.96
2017-12-13T22:51:53.768Z,8.93
2017-12-13T22:54:20.152Z,8.95
2017-12-13T22:56:46.578Z,8.94
2017-12-13T22:59:13.008Z,8.93
2017-12-13T23:01:39.626Z,8.97
2017-12-13T23:04:06.288Z,8.94
2017-12-13T23:06:32.776Z,8.91
2017-12-13T23:08:59.132Z,8.86
2017-12-13T23:11:25.511Z,8.87
2017-12-13T23:13:52.210Z,8.90
2017-12-13T23:16:18.581Z,8.87
2017-12-13T23:18:44.964Z,8.85
2017-12-13T23:21:11.347Z,8.82
2017-12-13T23:23:37.736Z,8.81
2017-12-13T23:26:04.115Z,8.71
2017-12-13T23:28:30.669Z,8.69
2017-12-13T23:30:57.087Z,8.71
2017-12-13T23:33:23.587Z,8.76
2017-12-13T23:35:50.071Z,8.77
2017-12-13T23:38:16.493Z,8.78
2017-12-13T23:40:42.871Z,8.71
2017-12-13T23:43:09.296Z,8.65
2017-12-13T23:45:35.855Z,8.63
2017-12-13T23:48:02.257Z,8.63
2017-12-13T23:50:28.728Z,8.56
2017-12-13T23:52:55.130Z,8.63
2017-12-13T23:55:21.612Z,8.64
2017-12-13T23:57:48.124Z,8.74
